Time;durP1;ratioP1;P1;durP2;ratioP2;P2;SDS_P1;SDS_P2;PMS_P1;PMS_P2;Temp;Humidity;BMP_temperature;BMP_pressure;BME280_temperature;BME280_humidity;BME280_pressure;Samples;Min_cycle;Max_cycle;Signal;HPM_P1;HPM_P2
2024/03/04 00:01:34;;;;;;;6.10;4.18;;;22.90;99.90;;;;;;4916843;29;20048;-39
2024/03/04 00:04:00;;;;;;;7.70;4.40;;;22.80;99.90;;;;;;4916971;29;20040;-40
2024/03/04 00:06:26;;;;;;;10.25;3.88;;;22.80;99.90;;;;;;4917039;29;20390;-40
2024/03/04 00:08:53;;;;;;;7.40;4.40;;;22.80;99.90;;;;;;4899207;29;20032;-40
2024/03/04 00:11:20;;;;;;;7.20;3.92;;;22.80;99.90;;;;;;4916933;29;20080;-40
2024/03/04 00:13:47;;;;;;;6.32;3.90;;;22.80;99.90;;;;;;4917049;29;20054;-40
2024/03/04 00:16:13;;;;;;;7.13;3.97;;;22.80;99.90;;;;;;4916856;29;20024;-40
2024/03/04 00:18:40;;;;;;;7.55;4.32;;;22.80;99.90;;;;;;4916714;29;20115;-40
2024/03/04 00:21:06;;;;;;;7.80;4.63;;;22.80;99.90;;;;;;4899641;29;20112;-40
2024/03/04 00:23:33;;;;;;;8.52;4.63;;;22.80;99.90;;;;;;4916553;29;20441;-40
2024/03/04 00:26:00;;;;;;;6.97;4.20;;;22.80;99.90;;;;;;4916667;29;20032;-40
2024/03/04 00:28:25;;;;;;;6.97;3.75;;;22.80;99.90;;;;;;4899541;29;20043;-40
2024/03/04 00:30:51;;;;;;;6.60;3.72;;;22.70;99.90;;;;;;4916610;29;20036;-40
2024/03/04 00:33:17;;;;;;;6.15;3.78;;;22.70;99.90;;;;;;4916437;29;20036;-40
2024/03/04 00:35:43;;;;;;;6.88;4.45;;;22.70;99.90;;;;;;4916577;29;20144;-41
2024/03/04 00:38:09;;;;;;;8.18;4.15;;;22.70;99.90;;;;;;4916452;29;20150;-40
2024/03/04 00:40:35;;;;;;;7.90;4.40;;;22.70;99.90;;;;;;4916395;29;20052;-40
2024/03/04 00:43:01;;;;;;;8.07;3.65;;;22.70;99.90;;;;;;4916430;29;20064;-40
2024/03/04 00:45:27;;;;;;;8.18;4.45;;;22.70;99.90;;;;;;4916235;29;20024;-40
2024/03/04 00:47:53;;;;;;;5.95;4.10;;;22.70;99.90;;;;;;4899667;29;20087;-40
2024/03/04 00:50:18;;;;;;;7.13;4.00;;;22.70;99.90;;;;;;4916161;29;20027;-40
2024/03/04 00:52:45;;;;;;;6.47;3.97;;;22.60;99.90;;;;;;4916266;29;20061;-40
2024/03/04 00:55:11;;;;;;;9.13;4.13;;;22.60;99.90;;;;;;4899181;29;20028;-40
2024/03/04 00:57:38;;;;;;;7.57;4.18;;;22.60;99.90;;;;;;4899235;29;20532;-41
2024/03/04 01:00:08;;;;;;;9.38;4.63;;;22.60;99.90;;;;;;4916134;29;20024;-39
2024/03/04 01:02:34;;;;;;;6.43;3.90;;;22.60;99.90;;;;;;4915813;29;20048;-40
2024/03/04 01:05:00;;;;;;;6.93;4.70;;;22.60;99.90;;;;;;4916265;29;20024;-39
2024/03/04 01:07:28;;;;;;;8.73;4.90;;;22.60;99.90;;;;;;4916226;29;20115;-40
2024/03/04 01:09:56;;;;;;;7.28;4.97;;;22.60;99.90;;;;;;4916213;29;20031;-41
2024/03/04 01:12:22;;;;;;;7.53;4.32;;;22.50;99.90;;;;;;4916012;29;20100;-41
2024/03/04 01:14:48;;;;;;;6.57;4.20;;;22.50;99.90;;;;;;4899210;29;20068;-39
2024/03/04 01:17:16;;;;;;;8.43;4.65;;;22.50;99.90;;;;;;4915994;29;20067;-40
2024/03/04 01:19:46;;;;;;;8.20;4.95;;;22.50;99.90;;;;;;4915875;29;20099;-39
2024/03/04 01:22:17;;;;;;;10.45;5.07;;;22.50;99.90;;;;;;4919574;29;20111;-39
2024/03/04 01:24:49;;;;;;;10.48;4.95;;;22.50;99.90;;;;;;4919723;29;20043;-40
2024/03/04 01:27:15;;;;;;;8.93;4.53;;;22.50;99.90;;;;;;4919783;29;20076;-40
2024/03/04 01:29:41;;;;;;;5.85;4.78;;;22.50;99.90;;;;;;4919851;29;20508;-40
2024/03/04 01:32:11;;;;;;;7.95;5.00;;;22.50;99.90;;;;;;4919747;29;20059;-41
2024/03/04 01:34:40;;;;;;;8.98;4.63;;;22.50;99.90;;;;;;4919731;29;20124;-40
2024/03/04 01:37:07;;;;;;;6.57;4.72;;;22.40;99.90;;;;;;4902783;29;20040;-39
2024/03/04 01:39:33;;;;;;;9.00;5.13;;;22.40;99.90;;;;;;4919603;29;20052;-39
2024/03/04 01:42:00;;;;;;;7.70;4.22;;;22.40;99.90;;;;;;4919792;29;20080;-40
2024/03/04 01:44:35;;;;;;;8.52;4.82;;;22.40;99.90;;;;;;4919716;29;20115;-40
2024/03/04 01:47:04;;;;;;;6.22;4.50;;;22.40;99.90;;;;;;4919529;29;20068;-39
2024/03/04 01:49:33;;;;;;;7.70;4.57;;;22.30;99.90;;;;;;4919563;29;20035;-40
2024/03/04 01:52:00;;;;;;;9.10;4.75;;;22.30;99.90;;;;;;4919516;29;20029;-39
2024/03/04 01:54:26;;;;;;;8.30;4.72;;;22.30;99.90;;;;;;4919496;29;20032;-39
2024/03/04 01:56:54;;;;;;;9.03;5.70;;;22.30;99.90;;;;;;4919425;29;20031;-39
2024/03/04 01:59:20;;;;;;;8.80;5.82;;;22.30;99.90;;;;;;4902506;29;20028;-40
2024/03/04 02:01:46;;;;;;;7.22;4.55;;;22.30;99.90;;;;;;4951511;23;20098;-58
2024/03/04 02:04:12;;;;;;;7.55;5.65;;;22.30;99.90;;;;;;4957349;28;20039;-58
2024/03/04 02:06:39;;;;;;;7.40;4.95;;;22.30;99.90;;;;;;4957125;28;20019;-59
2024/03/04 02:09:07;;;;;;;7.80;5.13;;;22.30;99.90;;;;;;4957239;28;20043;-59
2024/03/04 02:11:34;;;;;;;8.75;5.38;;;22.20;99.90;;;;;;4957161;29;20016;-58
2024/03/04 02:14:00;;;;;;;9.00;5.22;;;22.20;99.90;;;;;;4957351;29;20082;-59
2024/03/04 02:16:26;;;;;;;8.93;5.28;;;22.20;99.90;;;;;;4940053;29;20387;-61
2024/03/04 02:18:52;;;;;;;8.63;5.85;;;22.20;99.90;;;;;;4956997;28;20035;-59
2024/03/04 02:21:21;;;;;;;9.48;5.82;;;22.20;99.90;;;;;;4956950;28;20502;-59
2024/03/04 02:23:47;;;;;;;8.60;5.47;;;22.20;99.90;;;;;;4956925;29;20050;-59
2024/03/04 02:26:13;;;;;;;7.82;5.57;;;22.20;99.90;;;;;;4956836;29;20023;-59
2024/03/04 02:28:39;;;;;;;9.50;5.82;;;22.20;99.90;;;;;;4956860;28;20114;-59
2024/03/04 02:31:06;;;;;;;9.63;6.80;;;22.20;99.90;;;;;;4939723;29;20059;-58
2024/03/04 02:33:33;;;;;;;9.43;5.60;;;22.20;99.90;;;;;;4955980;28;20455;-58
2024/03/04 02:35:59;;;;;;;;;;;22.10;99.90;;;;;;4957359;28;20027;-58
2024/03/04 02:38:25;;;;;;;10.75;6.15;;;22.10;99.90;;;;;;4956661;28;19914;-58
2024/03/04 02:40:52;;;;;;;10.18;6.88;;;22.10;99.90;;;;;;4956800;29;20051;-58
2024/03/04 02:43:18;;;;;;;9.55;6.07;;;22.10;99.90;;;;;;4956897;29;20110;-58
2024/03/04 02:45:43;;;;;;;9.98;6.70;;;22.10;99.90;;;;;;4956610;29;20154;-58
2024/03/04 02:48:09;;;;;;;8.98;6.38;;;22.10;99.90;;;;;;4956592;29;20031;-59
2024/03/04 02:50:37;;;;;;;9.43;6.20;;;22.10;99.90;;;;;;4956521;29;20039;-60
2024/03/04 02:53:04;;;;;;;9.60;6.28;;;22.10;99.90;;;;;;4956714;28;20023;-59
2024/03/04 02:55:30;;;;;;;8.75;6.25;;;22.10;99.90;;;;;;4956798;29;20023;-60
2024/03/04 02:57:55;;;;;;;9.50;6.55;;;22.10;99.90;;;;;;4956438;29;20032;-61
2024/03/04 03:02:53;;;;;;;9.57;6.85;;;22.00;99.90;;;;;;4935094;29;20059;-45
2024/03/04 03:05:19;;;;;;;11.07;6.40;;;22.00;99.90;;;;;;4937110;29;20032;-45
2024/03/04 03:07:45;;;;;;;11.10;6.90;;;22.00;99.90;;;;;;4936967;29;20027;-45
2024/03/04 03:10:11;;;;;;;11.18;7.15;;;22.00;99.90;;;;;;4920051;29;20106;-45
2024/03/04 03:12:38;;;;;;;11.93;6.97;;;22.00;99.90;;;;;;4936970;29;20024;-45
2024/03/04 03:15:06;;;;;;;8.70;6.13;;;22.00;99.90;;;;;;4937029;29;20063;-45
2024/03/04 03:17:32;;;;;;;12.68;7.20;;;22.00;99.90;;;;;;4936879;29;20472;-45
2024/03/04 03:19:57;;;;;;;10.90;6.80;;;22.00;99.90;;;;;;4919573;29;20032;-49
2024/03/04 03:22:23;;;;;;;9.55;6.97;;;22.00;99.90;;;;;;4919466;29;20027;-45
2024/03/04 03:24:49;;;;;;;11.30;6.90;;;21.90;99.90;;;;;;4936587;29;20039;-47
2024/03/04 03:27:15;;;;;;;10.55;7.15;;;22.00;99.90;;;;;;4936486;29;20019;-45
2024/03/04 03:29:40;;;;;;;9.20;6.72;;;21.90;99.90;;;;;;4936628;29;20373;-45
2024/03/04 03:32:07;;;;;;;9.32;6.65;;;21.90;99.90;;;;;;4936486;29;20468;-46
2024/03/04 03:34:33;;;;;;;10.45;7.45;;;21.90;99.90;;;;;;4936608;29;20055;-46
2024/03/04 03:36:59;;;;;;;11.10;7.20;;;21.90;99.90;;;;;;4936428;29;20027;-46
2024/03/04 03:39:25;;;;;;;10.73;7.18;;;21.90;99.90;;;;;;4936345;29;20027;-48
2024/03/04 03:41:50;;;;;;;10.23;7.50;;;21.90;99.90;;;;;;4936397;29;20032;-46
2024/03/04 03:44:16;;;;;;;11.60;7.15;;;21.90;99.90;;;;;;4935886;29;20040;-47
2024/03/04 03:46:42;;;;;;;11.48;7.95;;;21.90;99.90;;;;;;4919210;29;20023;-47
2024/03/04 03:49:08;;;;;;;10.85;7.63;;;21.90;99.90;;;;;;4936278;29;20123;-48
2024/03/04 03:51:37;;;;;;;9.30;7.03;;;21.80;99.90;;;;;;4936545;29;20035;-47
2024/03/04 03:54:03;;;;;;;11.32;7.50;;;21.80;99.90;;;;;;4936422;29;20024;-47
2024/03/04 03:56:29;;;;;;;11.60;7.47;;;21.80;99.90;;;;;;4936132;29;20098;-47
2024/03/04 03:58:54;;;;;;;11.65;8.13;;;21.80;99.90;;;;;;4936586;29;20066;-48
2024/03/04 04:01:20;;;;;;;12.38;7.47;;;21.80;99.90;;;;;;4936371;29;20071;-47
2024/03/04 04:03:46;;;;;;;11.43;7.28;;;21.80;99.90;;;;;;4918973;29;20036;-46
2024/03/04 04:06:12;;;;;;;11.95;7.63;;;21.80;99.90;;;;;;4936026;29;20027;-48
2024/03/04 04:08:41;;;;;;;10.38;6.95;;;21.80;99.90;;;;;;4936253;29;20059;-47
2024/03/04 04:11:06;;;;;;;13.52;8.27;;;21.80;99.90;;;;;;4936087;29;20472;-48
2024/03/04 04:13:32;;;;;;;11.65;7.72;;;21.80;99.90;;;;;;4935909;29;20027;-46
2024/03/04 04:15:58;;;;;;;11.63;7.95;;;21.80;99.90;;;;;;4918807;29;20404;-47
2024/03/04 04:18:24;;;;;;;13.90;7.85;;;21.80;99.90;;;;;;4935774;29;20023;-47
2024/03/04 04:20:50;;;;;;;9.77;7.20;;;21.80;99.90;;;;;;4935707;29;20451;-46
2024/03/04 04:23:16;;;;;;;13.57;7.63;;;21.80;99.90;;;;;;4935572;29;20059;-46
2024/03/04 04:25:42;;;;;;;12.35;8.70;;;21.80;99.90;;;;;;4935700;29;20024;-45
2024/03/04 04:28:10;;;;;;;10.43;7.50;;;21.70;99.90;;;;;;4935879;29;20079;-46
2024/03/04 04:30:38;;;;;;;12.40;7.93;;;21.70;99.90;;;;;;4935604;29;20031;-47
2024/03/04 04:33:04;;;;;;;;;;;21.70;99.90;;;;;;4935712;29;20032;-47
2024/03/04 04:35:29;;;;;;;11.30;7.50;;;21.70;99.90;;;;;;4918469;29;19933;-47
2024/03/04 04:37:56;;;;;;;12.13;7.63;;;21.70;99.90;;;;;;4935442;29;20071;-47
2024/03/04 04:40:22;;;;;;;11.98;8.00;;;21.70;99.90;;;;;;4935453;29;20399;-46
2024/03/04 04:42:47;;;;;;;11.90;7.65;;;21.70;99.90;;;;;;4935195;29;20023;-47
2024/03/04 04:45:13;;;;;;;10.10;7.00;;;21.70;99.90;;;;;;4918109;29;20487;-47
2024/03/04 04:47:39;;;;;;;11.23;7.65;;;21.70;99.90;;;;;;4935303;29;20024;-48
2024/03/04 04:50:05;;;;;;;10.90;7.50;;;21.70;99.90;;;;;;4935282;29;20400;-47
2024/03/04 04:52:31;;;;;;;10.70;7.32;;;21.70;99.90;;;;;;4918141;29;20484;-47
2024/03/04 04:54:57;;;;;;;10.27;7.05;;;21.60;99.90;;;;;;4934686;29;20035;-47
2024/03/04 04:57:23;;;;;;;11.20;7.93;;;21.70;99.90;;;;;;4918416;29;20028;-46
2024/03/04 04:59:49;;;;;;;10.98;7.85;;;21.70;99.90;;;;;;4935078;29;20055;-47
2024/03/04 05:02:14;;;;;;;11.70;8.38;;;21.60;99.90;;;;;;4935504;29;20107;-45
2024/03/04 05:04:43;;;;;;;11.35;7.80;;;21.60;99.90;;;;;;4935185;29;20061;-47
2024/03/04 05:07:09;;;;;;;11.10;7.65;;;21.70;99.90;;;;;;4935209;29;20020;-47
2024/03/04 05:09:35;;;;;;;11.32;7.88;;;21.60;99.90;;;;;;4934836;29;20388;-46
2024/03/04 05:12:00;;;;;;;11.98;7.47;;;21.60;99.90;;;;;;4934962;29;20034;-47
2024/03/04 05:14:26;;;;;;;12.38;8.80;;;21.70;99.90;;;;;;4935033;29;20028;-47
2024/03/04 05:16:52;;;;;;;12.18;7.93;;;21.70;99.90;;;;;;4917979;29;20023;-46
2024/03/04 05:19:18;;;;;;;12.90;8.18;;;21.60;99.90;;;;;;4934891;29;20480;-46
2024/03/04 05:21:44;;;;;;;12.23;7.85;;;21.60;99.90;;;;;;4917814;29;20143;-46
2024/03/04 05:24:10;;;;;;;11.00;7.75;;;21.60;99.90;;;;;;4917789;29;20106;-47
2024/03/04 05:26:36;;;;;;;11.70;8.15;;;21.60;99.90;;;;;;4934838;29;20070;-46
2024/03/04 05:29:01;;;;;;;11.63;7.85;;;21.60;99.90;;;;;;4934757;29;20107;-47
2024/03/04 05:31:29;;;;;;;10.75;7.53;;;21.60;99.90;;;;;;4934757;29;20503;-47
2024/03/04 05:33:54;;;;;;;11.57;7.63;;;21.60;99.90;;;;;;4934864;29;20544;-47
2024/03/04 05:36:21;;;;;;;13.43;8.13;;;21.60;99.90;;;;;;4934706;29;20107;-46
2024/03/04 05:38:47;;;;;;;10.80;7.65;;;21.60;99.90;;;;;;4934755;29;20110;-46
2024/03/04 05:41:12;;;;;;;12.32;8.60;;;21.60;99.90;;;;;;4934747;29;20099;-46
2024/03/04 05:43:38;;;;;;;10.68;7.78;;;21.60;99.90;;;;;;4934520;29;20036;-46
2024/03/04 05:46:04;;;;;;;12.63;8.32;;;21.60;99.90;;;;;;4934668;29;20024;-48
2024/03/04 05:48:32;;;;;;;11.35;8.20;;;21.50;99.90;;;;;;4934650;29;20036;-46
2024/03/04 05:50:57;;;;;;;;;;;21.50;99.90;;;;;;4934991;29;20503;-46
2024/03/04 05:53:25;;;;;;;11.15;7.63;;;21.50;99.90;;;;;;4934720;29;20046;-47
2024/03/04 05:55:51;;;;;;;;;;;21.50;99.90;;;;;;4918090;29;20083;-45
2024/03/04 05:58:17;;;;;;;11.05;7.60;;;21.50;99.90;;;;;;4934580;29;20001;-45
2024/03/04 06:00:43;;;;;;;11.60;7.72;;;21.50;99.90;;;;;;4913273;29;20179;-46
2024/03/04 06:03:09;;;;;;;12.40;7.38;;;21.50;99.90;;;;;;4940334;28;20044;-47
2024/03/04 06:05:35;;;;;;;9.93;7.53;;;21.50;99.90;;;;;;4908228;29;20031;-47
2024/03/04 06:08:02;;;;;;;13.48;9.05;;;21.40;99.90;;;;;;4918280;29;20030;-47
2024/03/04 06:10:28;;;;;;;10.65;7.50;;;21.50;99.90;;;;;;4935605;29;20515;-47
2024/03/04 06:12:54;;;;;;;11.70;8.45;;;21.50;99.90;;;;;;4935656;29;20028;-47
2024/03/04 06:15:21;;;;;;;12.38;8.23;;;21.50;99.90;;;;;;4918667;29;20035;-47
2024/03/04 06:17:46;;;;;;;12.45;8.10;;;21.40;99.90;;;;;;4935493;29;20028;-47
2024/03/04 06:20:13;;;;;;;11.68;7.63;;;21.50;99.90;;;;;;4936723;29;20091;-47
2024/03/04 06:22:39;;;;;;;11.68;7.57;;;21.40;99.90;;;;;;4937156;29;20103;-47
2024/03/04 06:25:06;;;;;;;12.82;8.50;;;21.40;99.90;;;;;;4937668;29;20068;-47
2024/03/04 06:27:33;;;;;;;10.85;7.43;;;21.40;99.90;;;;;;4937743;29;20028;-47
2024/03/04 06:30:00;;;;;;;10.65;7.85;;;21.40;99.90;;;;;;4937887;29;20083;-48
2024/03/04 06:32:26;;;;;;;13.60;8.45;;;21.40;99.90;;;;;;4937575;29;20038;-47
2024/03/04 06:34:51;;;;;;;11.77;7.25;;;21.40;99.90;;;;;;4937672;29;20023;-46
2024/03/04 06:37:17;;;;;;;12.48;7.47;;;21.40;99.90;;;;;;4937517;29;20036;-47
2024/03/04 06:39:46;;;;;;;11.07;7.45;;;21.40;99.90;;;;;;4937672;29;20023;-48
2024/03/04 06:42:12;;;;;;;13.30;7.88;;;21.40;99.90;;;;;;4937568;29;20043;-48
2024/03/04 06:44:37;;;;;;;13.27;7.50;;;21.40;99.90;;;;;;4937482;29;20445;-47
2024/03/04 06:47:03;;;;;;;11.63;7.18;;;21.40;99.90;;;;;;4937398;29;20023;-47
2024/03/04 06:49:29;;;;;;;12.00;7.63;;;21.40;99.90;;;;;;4937500;29;20453;-48
2024/03/04 06:51:55;;;;;;;10.88;7.38;;;21.40;99.90;;;;;;4937396;29;20029;-45
2024/03/04 06:54:21;;;;;;;9.50;6.70;;;21.40;99.90;;;;;;4937285;29;20034;-46
2024/03/04 06:56:47;;;;;;;10.70;7.40;;;21.40;99.90;;;;;;4937556;29;20472;-47
2024/03/04 06:59:12;;;;;;;10.43;7.90;;;21.40;99.90;;;;;;4937376;29;20382;-47
2024/03/04 07:01:38;;;;;;;11.48;7.22;;;21.40;99.90;;;;;;4936897;29;20479;-48
2024/03/04 07:04:04;;;;;;;15.48;8.10;;;21.40;99.90;;;;;;4929378;29;20472;-47
2024/03/04 07:06:30;;;;;;;13.93;7.75;;;21.40;99.90;;;;;;4917768;29;20087;-47
2024/03/04 07:08:57;;;;;;;14.80;7.40;;;21.40;99.90;;;;;;4936615;29;20028;-47
2024/03/04 07:11:23;;;;;;;10.13;6.55;;;21.30;99.90;;;;;;4936437;29;20012;-47
2024/03/04 07:13:48;;;;;;;11.52;6.25;;;21.40;99.90;;;;;;4925188;29;20028;-47
2024/03/04 07:16:15;;;;;;;10.30;7.35;;;21.40;99.90;;;;;;4932827;29;20122;-47
2024/03/04 07:18:44;;;;;;;11.30;6.83;;;21.40;99.90;;;;;;4935232;29;20024;-46
2024/03/04 07:21:16;;;;;;;10.90;6.78;;;21.30;99.90;;;;;;4936133;29;20143;-47
2024/03/04 07:23:43;;;;;;;8.88;6.13;;;21.40;99.90;;;;;;4936356;29;20031;-46
2024/03/04 07:26:10;;;;;;;9.23;6.25;;;21.40;99.90;;;;;;4936145;29;20046;-47
2024/03/04 07:28:40;;;;;;;9.82;7.05;;;21.40;99.90;;;;;;4936491;29;20115;-47
2024/03/04 07:31:09;;;;;;;9.95;6.72;;;21.40;99.90;;;;;;4936119;29;20031;-47
2024/03/04 07:33:35;;;;;;;8.15;5.75;;;21.40;99.90;;;;;;4936406;29;20034;-47
2024/03/04 07:36:02;;;;;;;9.88;6.40;;;21.40;99.90;;;;;;4936105;29;20028;-46
2024/03/04 07:38:28;;;;;;;9.65;6.22;;;21.40;99.90;;;;;;4936102;29;20099;-47
2024/03/04 07:40:53;;;;;;;8.10;5.85;;;21.40;99.90;;;;;;4936224;29;20111;-48
2024/03/04 07:43:19;;;;;;;9.65;5.40;;;21.40;99.90;;;;;;4919149;29;20032;-46
2024/03/04 07:45:45;;;;;;;10.40;6.30;;;21.40;99.90;;;;;;4936219;29;20031;-46
2024/03/04 07:48:11;;;;;;;9.82;6.28;;;21.40;99.90;;;;;;4935964;29;20385;-47
2024/03/04 07:50:36;;;;;;;9.25;6.05;;;21.40;99.90;;;;;;4936042;29;20031;-46
2024/03/04 07:53:02;;;;;;;9.32;5.60;;;21.40;99.90;;;;;;4936099;29;20060;-47
2024/03/04 07:55:28;;;;;;;7.75;5.35;;;21.50;99.90;;;;;;4935787;29;20431;-47
2024/03/04 07:57:54;;;;;;;9.18;5.43;;;21.40;99.90;;;;;;4935881;29;20031;-46
2024/03/04 08:00:20;;;;;;;10.00;5.38;;;21.50;99.90;;;;;;4935892;29;20103;-47
2024/03/04 08:02:46;;;;;;;14.27;5.90;;;21.50;99.90;;;;;;4935655;29;20040;-47
2024/03/04 08:05:12;;;;;;;10.43;5.90;;;21.50;99.90;;;;;;4935654;29;20098;-46
2024/03/04 08:07:39;;;;;;;12.95;6.22;;;21.50;99.90;;;;;;4918771;29;20438;-46
2024/03/04 08:10:08;;;;;;;9.38;6.32;;;21.50;99.90;;;;;;4935682;29;20038;-47
2024/03/04 08:12:37;;;;;;;8.48;6.00;;;21.50;99.90;;;;;;4935516;29;20024;-47
2024/03/04 08:15:04;;;;;;;9.13;6.53;;;21.50;99.90;;;;;;4918566;29;20036;-47
2024/03/04 08:17:32;;;;;;;9.35;6.32;;;21.60;99.90;;;;;;4918257;29;20420;-47
2024/03/04 08:19:59;;;;;;;9.45;6.30;;;21.60;99.90;;;;;;4935614;29;20460;-47
2024/03/04 08:22:25;;;;;;;11.90;6.63;;;21.60;99.90;;;;;;4935807;29;20032;-47
2024/03/04 08:24:51;;;;;;;14.68;7.20;;;21.60;99.90;;;;;;4935735;29;20083;-47
2024/03/04 08:27:17;;;;;;;11.15;6.80;;;21.60;99.90;;;;;;4935584;29;20032;-47
2024/03/04 08:29:43;;;;;;;12.30;6.85;;;21.60;99.90;;;;;;4934711;29;20031;-47
2024/03/04 08:32:08;;;;;;;10.68;6.95;;;21.60;99.90;;;;;;4918349;29;20116;-47
2024/03/04 08:34:34;;;;;;;8.77;6.40;;;21.60;99.90;;;;;;4935240;29;20082;-47
2024/03/04 08:37:00;;;;;;;11.05;7.07;;;21.60;99.90;;;;;;4918314;29;20036;-47
2024/03/04 08:39:26;;;;;;;10.18;6.63;;;21.60;99.90;;;;;;4918076;29;20263;-47
2024/03/04 08:41:52;;;;;;;11.32;6.85;;;21.60;99.90;;;;;;4935471;29;20066;-47
2024/03/04 08:44:18;;;;;;;12.57;7.00;;;21.70;99.90;;;;;;4918254;29;20544;-47
2024/03/04 08:46:44;;;;;;;10.80;6.80;;;21.60;99.90;;;;;;4917740;29;20031;-47
2024/03/04 08:49:10;;;;;;;13.20;7.70;;;21.60;99.90;;;;;;4917992;29;20043;-47
2024/03/04 08:51:36;;;;;;;11.98;7.10;;;21.60;99.90;;;;;;4934925;29;20071;-47
2024/03/04 08:54:02;;;;;;;12.75;6.47;;;21.60;99.90;;;;;;4934885;29;20032;-48
2024/03/04 08:56:28;;;;;;;10.27;5.50;;;21.60;99.90;;;;;;4934725;29;20051;-47
2024/03/04 08:58:59;;;;;;;11.07;6.07;;;21.70;99.90;;;;;;4935142;29;20024;-47
2024/03/04 09:01:26;;;;;;;10.23;6.07;;;21.70;99.90;;;;;;4921840;29;20381;-47
2024/03/04 09:03:52;;;;;;;10.00;6.03;;;21.70;99.90;;;;;;4933613;29;20036;-47
2024/03/04 09:06:20;;;;;;;9.77;6.88;;;21.70;99.90;;;;;;4934726;29;20090;-47
2024/03/04 09:08:46;;;;;;;9.88;5.75;;;21.70;99.90;;;;;;4934399;29;20020;-47
2024/03/04 09:11:12;;;;;;;9.60;5.57;;;21.70;99.90;;;;;;4934716;29;20023;-47
2024/03/04 09:13:39;;;;;;;7.78;5.38;;;21.70;99.90;;;;;;4934661;29;20030;-47
2024/03/04 09:16:06;;;;;;;8.35;5.10;;;21.70;99.90;;;;;;4934519;29;20079;-46
2024/03/04 09:18:33;;;;;;;8.88;5.35;;;21.70;99.90;;;;;;4934666;29;20497;-47
2024/03/04 09:21:02;;;;;;;7.22;5.30;;;21.70;99.90;;;;;;4934316;29;20027;-47
2024/03/04 09:23:28;;;;;;;9.65;5.82;;;21.80;99.90;;;;;;4934607;29;20035;-47
2024/03/04 09:25:55;;;;;;;8.13;6.15;;;21.80;99.90;;;;;;4934589;29;20373;-49
2024/03/04 09:28:21;;;;;;;10.52;6.00;;;21.80;99.90;;;;;;4934612;29;20027;-46
2024/03/04 09:30:47;;;;;;;8.27;6.10;;;21.80;99.90;;;;;;4934371;29;20038;-47
2024/03/04 09:33:13;;;;;;;8.95;5.88;;;21.80;99.90;;;;;;4934629;29;20024;-47
2024/03/04 09:35:39;;;;;;;8.70;6.57;;;21.80;99.90;;;;;;4934528;29;20103;-47
2024/03/04 09:38:06;;;;;;;9.10;6.20;;;21.80;99.90;;;;;;4934458;29;20031;-47
2024/03/04 09:40:34;;;;;;;10.52;6.53;;;21.80;99.90;;;;;;4934467;29;20024;-47
2024/03/04 09:43:00;;;;;;;7.93;6.25;;;21.90;99.90;;;;;;4937548;29;20118;-47
2024/03/04 09:45:28;;;;;;;8.07;5.38;;;21.90;99.90;;;;;;4938381;29;20059;-47
2024/03/04 09:47:58;;;;;;;7.20;5.22;;;21.90;99.90;;;;;;4918717;29;20385;-47
2024/03/04 09:50:25;;;;;;;8.55;5.65;;;21.90;99.90;;;;;;4938435;29;20070;-47
2024/03/04 09:52:54;;;;;;;10.50;5.57;;;21.90;99.90;;;;;;4938201;29;20576;-47
2024/03/04 09:55:20;;;;;;;8.80;6.00;;;22.00;99.90;;;;;;4937897;29;20079;-47
2024/03/04 09:57:46;;;;;;;8.43;5.45;;;22.00;99.90;;;;;;4937732;29;20036;-46
2024/03/04 10:00:16;;;;;;;10.43;5.57;;;22.00;99.90;;;;;;4937842;29;20523;-47
2024/03/04 10:02:45;;;;;;;9.98;6.20;;;22.00;99.90;;;;;;4937789;29;20079;-47
2024/03/04 10:05:13;;;;;;;9.32;5.82;;;22.10;99.90;;;;;;4937777;29;20028;-46
2024/03/04 10:07:39;;;;;;;9.60;6.32;;;22.10;99.90;;;;;;4920870;29;20087;-47
2024/03/04 10:10:08;;;;;;;9.48;6.40;;;22.10;99.90;;;;;;4937717;29;20539;-46
2024/03/04 10:12:34;;;;;;;10.50;6.32;;;22.10;99.90;;;;;;4937617;29;20031;-47
2024/03/04 10:15:09;;;;;;;22.85;6.80;;;22.20;99.90;;;;;;4938008;29;20028;-47
2024/03/04 10:17:37;;;;;;;15.13;6.00;;;22.20;99.90;;;;;;4937796;29;20024;-47
2024/03/04 10:20:08;;;;;;;10.60;6.13;;;22.30;99.90;;;;;;4937972;29;20024;-47
2024/03/04 10:22:36;;;;;;;9.35;6.00;;;22.30;99.90;;;;;;4937554;29;20040;-47
2024/03/04 10:25:07;;;;;;;8.88;5.13;;;22.30;99.90;;;;;;4937604;29;20035;-47
2024/03/04 10:27:34;;;;;;;12.52;6.40;;;22.30;99.90;;;;;;4937599;29;20075;-47
2024/03/04 10:30:09;;;;;;;;;;;22.40;99.90;;;;;;4938176;29;20384;-47
2024/03/04 10:32:43;;;;;;;9.52;5.57;;;22.40;99.90;;;;;;4937440;29;19953;-47
2024/03/04 10:35:09;;;;;;;9.25;5.68;;;22.50;99.90;;;;;;4937457;29;20156;-47
2024/03/04 10:37:35;;;;;;;8.25;5.38;;;22.50;99.90;;;;;;4920039;29;20019;-47
2024/03/04 10:40:01;;;;;;;9.15;5.28;;;22.50;99.90;;;;;;4937456;29;20403;-47
2024/03/04 10:42:27;;;;;;;9.27;5.00;;;22.50;99.90;;;;;;4937334;29;20029;-47
2024/03/04 10:44:53;;;;;;;9.15;5.78;;;22.60;99.90;;;;;;4919809;29;20036;-47
2024/03/04 10:47:23;;;;;;;7.88;5.18;;;22.60;99.90;;;;;;4937102;29;20030;-47
2024/03/04 10:49:52;;;;;;;6.15;4.40;;;22.60;99.90;;;;;;4936903;29;20024;-47
2024/03/04 10:52:18;;;;;;;9.35;5.18;;;22.60;99.90;;;;;;4937089;29;20047;-47
2024/03/04 10:54:45;;;;;;;10.20;4.57;;;22.70;99.90;;;;;;4936015;29;20066;-47
2024/03/04 10:57:27;;;;;;;7.57;4.95;;;22.70;99.90;;;;;;4936968;29;20023;-47
2024/03/04 10:59:55;;;;;;;9.68;5.57;;;22.70;99.90;;;;;;4919552;29;20038;-48
2024/03/04 11:02:25;;;;;;;;;;;22.80;99.90;;;;;;4937181;29;20393;-47
2024/03/04 11:04:51;;;;;;;8.70;4.75;;;22.80;99.90;;;;;;4936538;29;19915;-48
2024/03/04 11:07:21;;;;;;;8.95;4.47;;;22.80;99.90;;;;;;4919711;29;20425;-47
2024/03/04 11:09:49;;;;;;;6.93;4.38;;;22.90;99.90;;;;;;4936828;29;20062;-47
2024/03/04 11:12:19;;;;;;;9.48;4.32;;;22.90;99.90;;;;;;4919512;29;20020;-47
2024/03/04 11:14:54;;;;;;;7.75;4.45;;;22.90;99.90;;;;;;4936452;29;20019;-48
2024/03/04 11:17:31;;;;;;;8.30;4.22;;;22.90;99.90;;;;;;4936648;29;20404;-47
2024/03/04 11:19:58;;;;;;;7.15;4.22;;;22.90;99.90;;;;;;4936700;29;20467;-47
2024/03/04 11:22:25;;;;;;;8.40;4.13;;;23.00;99.90;;;;;;4936494;29;20075;-48
2024/03/04 11:24:52;;;;;;;6.63;4.35;;;23.00;99.90;;;;;;4936409;29;20119;-47
2024/03/04 11:27:19;;;;;;;7.47;4.47;;;23.00;99.90;;;;;;4936472;29;20074;-47
2024/03/04 11:29:47;;;;;;;9.53;4.63;;;23.00;99.90;;;;;;4936233;29;20020;-47
2024/03/04 11:32:13;;;;;;;11.60;4.70;;;23.00;99.90;;;;;;4936220;29;20020;-47
2024/03/04 11:34:58;;;;;;;6.13;4.28;;;23.00;99.90;;;;;;4919190;29;20038;-47
2024/03/04 11:37:31;;;;;;;6.07;3.88;;;23.00;99.90;;;;;;4936271;29;20054;-49
2024/03/04 11:39:57;;;;;;;7.40;4.35;;;23.10;99.90;;;;;;4918852;29;20024;-47
2024/03/04 11:42:38;;;;;;;5.63;4.25;;;23.10;99.90;;;;;;4936140;29;20094;-48
2024/03/04 11:45:07;;;;;;;5.03;3.50;;;23.10;99.90;;;;;;4936011;29;20035;-47
2024/03/04 11:47:33;;;;;;;5.43;3.00;;;23.20;99.90;;;;;;4936501;29;20134;-47
2024/03/04 11:49:59;;;;;;;4.97;3.40;;;23.20;99.90;;;;;;4935764;29;20051;-47
2024/03/04 11:52:28;;;;;;;6.65;3.45;;;23.20;99.90;;;;;;4936070;29;20024;-47
2024/03/04 11:54:58;;;;;;;5.32;3.53;;;23.20;99.90;;;;;;4918577;29;20032;-47
2024/03/04 11:57:24;;;;;;;7.97;3.67;;;23.20;99.90;;;;;;4935684;29;20111;-47
2024/03/04 12:00:01;;;;;;;9.55;4.50;;;23.20;99.90;;;;;;4919017;29;20480;-47
2024/03/04 12:02:27;;;;;;;6.67;3.47;;;23.30;99.90;;;;;;4930806;29;20134;-47
2024/03/04 12:04:53;;;;;;;9.93;4.22;;;23.30;99.90;;;;;;4933928;29;20628;-47
2024/03/04 12:07:22;;;;;;;7.63;4.18;;;23.30;99.90;;;;;;4935704;29;20464;-46
2024/03/04 12:09:48;;;;;;;6.60;3.88;;;23.30;99.90;;;;;;4935161;29;20082;-47
2024/03/04 12:12:15;;;;;;;8.30;4.55;;;23.40;99.90;;;;;;4935216;29;20164;-47
2024/03/04 12:14:42;;;;;;;8.70;4.45;;;23.30;99.90;;;;;;4935099;29;20158;-47
2024/03/04 12:17:08;;;;;;;8.55;3.80;;;23.30;99.90;;;;;;4935676;29;20027;-47
2024/03/04 12:19:34;;;;;;;9.32;4.35;;;23.40;99.90;;;;;;4935680;29;20595;-47
2024/03/04 12:22:00;;;;;;;8.68;3.80;;;23.40;99.90;;;;;;4935481;29;20031;-48
2024/03/04 12:24:26;;;;;;;6.63;4.47;;;23.40;99.90;;;;;;4935266;29;20032;-47
2024/03/04 12:26:55;;;;;;;14.60;4.85;;;23.50;99.90;;;;;;4935373;29;20428;-47
2024/03/04 12:29:24;;;;;;;6.35;3.65;;;23.50;99.90;;;;;;4932552;29;20047;-47
2024/03/04 12:31:54;;;;;;;11.10;4.05;;;23.50;99.90;;;;;;4934932;29;20028;-46
2024/03/04 12:34:21;;;;;;;5.07;3.75;;;23.50;99.90;;;;;;4934955;29;20020;-47
2024/03/04 12:36:51;;;;;;;6.35;4.28;;;23.50;99.90;;;;;;4935266;29;20393;-47
2024/03/04 12:39:19;;;;;;;9.10;3.92;;;23.50;99.90;;;;;;4934472;29;20095;-47
2024/03/04 12:41:51;;;;;;;10.80;4.88;;;23.60;99.90;;;;;;4934116;29;20438;-47
2024/03/04 12:44:21;;;;;;;8.10;4.15;;;23.60;99.90;;;;;;4933520;29;20507;-46